SBSV/SSA METAR and TAF weather

Enter ICAO airport designator
Station Type Date Time Source
SBSV METAR 2020/09/28 09:00 UTC NOAA

SBSV 280900Z 00000KT 9999 SCT020 22/21 Q1014


Station Type Date Time Source
SBSV Decoded METAR 2020/09/28 09:00 UTC NOAA

Salvador Aeroporto , Brazil (SBSV) 12-54S 038-20W 13M
Sep 28, 2020 - 05:00 AM EDT / 2020.09.28 0900 UTC
Wind: Calm:0
Visibility: greater than 7 mile(s):0
Sky conditions: partly cloudy
Temperature: 71 F (22 C)
Dew Point: 69 F (21 C)
Relative Humidity: 94%
Pressure (altimeter): 29.94 in. Hg (1014 hPa)
ob: SBSV 280900Z 00000KT 9999 SCT020 22/21 Q1014
cycle: 9

Station Type Date Time Source
SBSV TAF 2020/09/28 06:56 UTC NOAA

TAF SBSV 280230Z 2806/2906 10005KT 9999 FEW023 TN24/2807Z TX28/2818Z PROB30 2807/2812 SHRA SCT020 FEW025TCU
RMK PGG

Example: see airport list